KPVD

Theodore Francis Green State Airport

Providence, Rhode Island, USA
METAR KPVD 261251Z 26008KT 10SM FEW250 26/18 A2980 RMK AO2 SLP090 T02560178
Observed Flight Rules
May-26 @ 12:51 UTC (47 minutes ago) Visual Flight Rules
Wind Visibility Clouds
260° at 8 knots 10 miles
  • Few at 25,000' AGL
Temperatures Readings
Current 26°C / 79°F
Dewpoint 18°C / 64°F
Humidity 61%
Altimeter 29.8" Hg
Pressure 1009 hPa
Elevation 16
METAR KPVD 261251Z 26008KT 10SM FEW250 26/18 A2980 RMK AO2 SLP090 T02560178
Observed Flight Rules
May-26 @ 12:51 UTC
(47 minutes ago)
VFR
Wind Visibility
260° at 8 knots 10 miles
Clouds
  • Few at 25,000' AGL
Temperature Dewpoint
26°C / 79°F 18°C / 64°F
Humidity Altimeter Pressure
61% 29.8" Hg 1009 hPa